Terminal Aerodrome Forecast
Issued by NWS Wilmington, OH

Current Version | Previous Version | Text Only | Print | Product List | Glossary Off
Versions: 1 2 3 4 5 6 7 8 9 10 11 12 13 14 15 16 17 18 19 20 21 22 23 24

000
FTUS41 KILN 010800 AAA
TAFCVG
TAF AMD
KCVG 010856Z 0109/0212 00000KT P6SM FEW100
      TEMPO 0109/0112 4SM BR
     FM011400 08004KT P6SM FEW030
     FM011700 07005KT P6SM BKN060
     FM020000 10003KT P6SM SCT060 BKN250=

USA.gov is the U.S. government's official web portal to all federal, state and local government web resources and services.